N27JY PTKK-PGUM
Flight info
| Callsign | N27JY |
|---|---|
| Flight time | N/A |
| Altitude | 38000 |
| Route | WUMVE R584 UNZ |
| Aircraft | CL60/M-SBDE1E2E3FGHIJ1J4J5J7M3RWXYZ/LB1V1D1 |
Departure
| Time | N/A |
|---|---|
| Airport | Chuuk International Airport (PTKK) |
Arrival
| Time | 2026-04-25 01:40 |
|---|---|
| Airport | Antonio B. Won Pat International Airport (PGUM) |
| Time | Latitude | Longitude | Altitude | Speed | Heading |
|---|---|---|---|---|---|
| 2026-04-25 00:29 | 8.12161 | 151.32828 | 14922 ft | 398 kts | 312° |
| 2026-04-25 00:29 | 8.13912 | 151.30666 | 14916 ft | 398 kts | 313° |
| 2026-04-25 00:29 | 8.15651 | 151.28513 | 14910 ft | 397 kts | 312° |
| 2026-04-25 00:29 | 8.17405 | 151.26346 | 14930 ft | 401 kts | 312° |
| 2026-04-25 00:30 | 8.19221 | 151.24106 | 15411 ft | 413 kts | 312° |
| 2026-04-25 00:30 | 8.21018 | 151.21884 | 16343 ft | 410 kts | 312° |
| 2026-04-25 00:30 | 8.22812 | 151.19664 | 17279 ft | 407 kts | 312° |
| 2026-04-25 00:30 | 8.24609 | 151.17445 | 18068 ft | 408 kts | 311° |
| 2026-04-25 00:31 | 8.26261 | 151.15407 | 18673 ft | 411 kts | 312° |
| 2026-04-25 00:31 | 8.27857 | 151.13422 | 19263 ft | 413 kts | 310° |
| 2026-04-25 00:31 | 8.29686 | 151.11162 | 19876 ft | 418 kts | 311° |
| 2026-04-25 00:31 | 8.31549 | 151.08859 | 20482 ft | 422 kts | 311° |
| 2026-04-25 00:32 | 8.33409 | 151.06560 | 21065 ft | 425 kts | 311° |
| 2026-04-25 00:32 | 8.35284 | 151.04242 | 21608 ft | 429 kts | 311° |
| 2026-04-25 00:32 | 8.37196 | 151.01878 | 22147 ft | 433 kts | 311° |
| 2026-04-25 00:32 | 8.39089 | 150.99536 | 22727 ft | 435 kts | 311° |
| 2026-04-25 00:33 | 8.41019 | 150.97150 | 23259 ft | 439 kts | 310° |
| 2026-04-25 00:33 | 8.42947 | 150.94763 | 23784 ft | 442 kts | 310° |
| 2026-04-25 00:33 | 8.44912 | 150.92331 | 24300 ft | 445 kts | 310° |
| 2026-04-25 00:33 | 8.46865 | 150.89914 | 24776 ft | 448 kts | 310° |
| 2026-04-25 00:34 | 8.48859 | 150.87445 | 25256 ft | 451 kts | 310° |
| 2026-04-25 00:34 | 8.50836 | 150.84998 | 25726 ft | 454 kts | 310° |
| 2026-04-25 00:34 | 8.52845 | 150.82509 | 26207 ft | 456 kts | 308° |
| 2026-04-25 00:34 | 8.54839 | 150.80037 | 26775 ft | 454 kts | 308° |
| 2026-04-25 00:35 | 8.56856 | 150.77537 | 27082 ft | 460 kts | 308° |
| 2026-04-25 00:35 | 8.58938 | 150.74956 | 27273 ft | 468 kts | 309° |
| 2026-04-25 00:35 | 8.61009 | 150.72389 | 27556 ft | 473 kts | 309° |
| 2026-04-25 00:35 | 8.63108 | 150.69786 | 27996 ft | 474 kts | 308° |
| 2026-04-25 00:36 | 8.65204 | 150.67188 | 28606 ft | 470 kts | 307° |
| 2026-04-25 00:36 | 8.67270 | 150.64625 | 28951 ft | 473 kts | 308° |
| 2026-04-25 00:36 | 8.69363 | 150.62027 | 29133 ft | 479 kts | 308° |
| 2026-04-25 00:36 | 8.71480 | 150.59401 | 29587 ft | 478 kts | 308° |
| 2026-04-25 00:37 | 8.73600 | 150.56770 | 30011 ft | 478 kts | 307° |
| 2026-04-25 00:37 | 8.75697 | 150.54164 | 30415 ft | 478 kts | 308° |
| 2026-04-25 00:37 | 8.77838 | 150.51508 | 30726 ft | 481 kts | 308° |
| 2026-04-25 00:37 | 8.79973 | 150.48857 | 31101 ft | 481 kts | 308° |
| 2026-04-25 00:38 | 8.82079 | 150.46242 | 31488 ft | 481 kts | 308° |
| 2026-04-25 00:38 | 8.84197 | 150.43608 | 31877 ft | 480 kts | 308° |
| 2026-04-25 00:38 | 8.86300 | 150.40996 | 32268 ft | 480 kts | 308° |
| 2026-04-25 00:38 | 8.88403 | 150.38382 | 32667 ft | 479 kts | 308° |
| 2026-04-25 00:39 | 8.90524 | 150.35747 | 33108 ft | 478 kts | 308° |
| 2026-04-25 00:39 | 8.92609 | 150.33154 | 33552 ft | 476 kts | 308° |
| 2026-04-25 00:39 | 8.94701 | 150.30553 | 34018 ft | 475 kts | 308° |
| 2026-04-25 00:39 | 8.96797 | 150.27946 | 34446 ft | 473 kts | 308° |
| 2026-04-25 00:40 | 8.98880 | 150.25356 | 34875 ft | 472 kts | 308° |
| 2026-04-25 00:40 | 9.00946 | 150.22784 | 35277 ft | 470 kts | 308° |
| 2026-04-25 00:40 | 9.02995 | 150.20235 | 35634 ft | 470 kts | 308° |
| 2026-04-25 00:40 | 9.05061 | 150.17664 | 35920 ft | 471 kts | 307° |
| 2026-04-25 00:41 | 9.09241 | 150.12457 | 35928 ft | 482 kts | 307° |
| 2026-04-25 00:41 | 9.13529 | 150.07115 | 35929 ft | 491 kts | 308° |
| 2026-04-25 00:42 | 9.17866 | 150.01709 | 35928 ft | 496 kts | 308° |
| 2026-04-25 00:42 | 9.22224 | 149.96277 | 35929 ft | 497 kts | 308° |
| 2026-04-25 00:43 | 9.26577 | 149.90848 | 35928 ft | 496 kts | 308° |
| 2026-04-25 00:43 | 9.30955 | 149.85384 | 35928 ft | 496 kts | 308° |
| 2026-04-25 00:44 | 9.35307 | 149.79953 | 35928 ft | 495 kts | 307° |
| 2026-04-25 00:44 | 9.39645 | 149.74535 | 35927 ft | 495 kts | 308° |
| 2026-04-25 00:45 | 9.44008 | 149.69083 | 35928 ft | 495 kts | 307° |
| 2026-04-25 00:45 | 9.48331 | 149.63680 | 35927 ft | 494 kts | 307° |
| 2026-04-25 00:46 | 9.52660 | 149.58266 | 35927 ft | 494 kts | 307° |
| 2026-04-25 00:47 | 9.59161 | 149.50131 | 35927 ft | 493 kts | 307° |
| 2026-04-25 00:47 | 9.63504 | 149.44693 | 35928 ft | 493 kts | 307° |
| 2026-04-25 00:48 | 9.67807 | 149.39304 | 35928 ft | 492 kts | 307° |
| 2026-04-25 00:48 | 9.72133 | 149.33882 | 35928 ft | 491 kts | 307° |
| 2026-04-25 00:49 | 9.76432 | 149.28491 | 35927 ft | 491 kts | 307° |
| 2026-04-25 00:49 | 9.80720 | 149.23112 | 35928 ft | 490 kts | 307° |
| 2026-04-25 00:50 | 9.85023 | 149.17712 | 35929 ft | 490 kts | 307° |
| 2026-04-25 00:50 | 9.89292 | 149.12354 | 35931 ft | 489 kts | 307° |
| 2026-04-25 00:51 | 9.93576 | 149.06973 | 35927 ft | 488 kts | 307° |
| 2026-04-25 00:51 | 9.97844 | 149.01608 | 35930 ft | 488 kts | 307° |
| 2026-04-25 00:52 | 10.02138 | 148.96210 | 35940 ft | 488 kts | 307° |
| 2026-04-25 00:52 | 10.06427 | 148.90814 | 35949 ft | 488 kts | 307° |
| 2026-04-25 00:53 | 10.10674 | 148.85471 | 35940 ft | 487 kts | 307° |
| 2026-04-25 00:53 | 10.14941 | 148.80096 | 35931 ft | 487 kts | 307° |
| 2026-04-25 00:54 | 10.19205 | 148.74725 | 35933 ft | 487 kts | 307° |
| 2026-04-25 00:54 | 10.23432 | 148.69398 | 35933 ft | 486 kts | 307° |
| 2026-04-25 00:55 | 10.27687 | 148.64033 | 35932 ft | 485 kts | 307° |
| 2026-04-25 00:55 | 10.31924 | 148.58688 | 35935 ft | 485 kts | 307° |
| 2026-04-25 00:56 | 10.36124 | 148.53387 | 35932 ft | 485 kts | 307° |
| 2026-04-25 00:56 | 10.40398 | 148.47989 | 35932 ft | 484 kts | 307° |
| 2026-04-25 00:57 | 10.44623 | 148.42651 | 35930 ft | 483 kts | 307° |
| 2026-04-25 00:57 | 10.48825 | 148.37341 | 35928 ft | 483 kts | 307° |
| 2026-04-25 00:58 | 10.53038 | 148.32013 | 35928 ft | 483 kts | 307° |
| 2026-04-25 00:58 | 10.57247 | 148.26688 | 35928 ft | 482 kts | 307° |
| 2026-04-25 00:59 | 10.61445 | 148.21373 | 35923 ft | 481 kts | 307° |
| 2026-04-25 00:59 | 10.65662 | 148.16032 | 35926 ft | 481 kts | 307° |
| 2026-04-25 01:00 | 10.69829 | 148.10753 | 35927 ft | 480 kts | 307° |
| 2026-04-25 01:00 | 10.74084 | 148.05431 | 35926 ft | 480 kts | 309° |
| 2026-04-25 01:01 | 10.78475 | 148.00304 | 35930 ft | 480 kts | 310° |
| 2026-04-25 01:01 | 10.82898 | 147.95136 | 35927 ft | 480 kts | 310° |
| 2026-04-25 01:02 | 10.87311 | 147.89977 | 35930 ft | 479 kts | 310° |
| 2026-04-25 01:02 | 10.91678 | 147.84868 | 35930 ft | 478 kts | 310° |
| 2026-04-25 01:03 | 10.96041 | 147.79761 | 35932 ft | 477 kts | 310° |
| 2026-04-25 01:03 | 11.00419 | 147.74634 | 35929 ft | 477 kts | 309° |
| 2026-04-25 01:04 | 11.04777 | 147.69525 | 35933 ft | 476 kts | 310° |
| 2026-04-25 01:04 | 11.09122 | 147.64432 | 35941 ft | 476 kts | 309° |
| 2026-04-25 01:05 | 11.13833 | 147.58905 | 35938 ft | 475 kts | 309° |
| 2026-04-25 01:05 | 11.18167 | 147.53818 | 35941 ft | 474 kts | 309° |
| 2026-04-25 01:06 | 11.22504 | 147.48724 | 35944 ft | 473 kts | 309° |
| 2026-04-25 01:06 | 11.26801 | 147.43675 | 35948 ft | 472 kts | 309° |
| 2026-04-25 01:07 | 11.31136 | 147.38579 | 35949 ft | 472 kts | 309° |
| 2026-04-25 01:07 | 11.35436 | 147.33521 | 35949 ft | 471 kts | 309° |
| 2026-04-25 01:08 | 11.39758 | 147.28435 | 35948 ft | 471 kts | 309° |
| 2026-04-25 01:08 | 11.44062 | 147.23367 | 35949 ft | 470 kts | 309° |
| 2026-04-25 01:09 | 11.48327 | 147.18343 | 35949 ft | 469 kts | 309° |
| 2026-04-25 01:09 | 11.52627 | 147.13275 | 35948 ft | 469 kts | 309° |
| 2026-04-25 01:10 | 11.56836 | 147.08226 | 35950 ft | 468 kts | 308° |
| 2026-04-25 01:10 | 11.61015 | 147.03076 | 35947 ft | 467 kts | 308° |
| 2026-04-25 01:11 | 11.65160 | 146.97969 | 35948 ft | 467 kts | 308° |
| 2026-04-25 01:11 | 11.69294 | 146.92874 | 35947 ft | 466 kts | 308° |
| 2026-04-25 01:12 | 11.73430 | 146.87775 | 35947 ft | 466 kts | 308° |
| 2026-04-25 01:12 | 11.77568 | 146.82669 | 35949 ft | 465 kts | 308° |
| 2026-04-25 01:13 | 11.81678 | 146.77597 | 35947 ft | 464 kts | 308° |
| 2026-04-25 01:13 | 11.85814 | 146.72490 | 35949 ft | 464 kts | 308° |
| 2026-04-25 01:14 | 11.89933 | 146.67403 | 35947 ft | 464 kts | 308° |
| 2026-04-25 01:14 | 11.94084 | 146.62273 | 35945 ft | 463 kts | 308° |
| 2026-04-25 01:15 | 11.98165 | 146.57227 | 35950 ft | 462 kts | 308° |
| 2026-04-25 01:15 | 12.02292 | 146.52121 | 35948 ft | 461 kts | 308° |
| 2026-04-25 01:16 | 12.06396 | 146.47041 | 35950 ft | 461 kts | 308° |
| 2026-04-25 01:16 | 12.10475 | 146.41991 | 35948 ft | 461 kts | 308° |
| 2026-04-25 01:17 | 12.14569 | 146.36919 | 35949 ft | 460 kts | 308° |
| 2026-04-25 01:17 | 12.18670 | 146.31834 | 35952 ft | 460 kts | 308° |
| 2026-04-25 01:18 | 12.22764 | 146.26756 | 35952 ft | 460 kts | 308° |
| 2026-04-25 01:18 | 12.26870 | 146.21661 | 35956 ft | 461 kts | 308° |
| 2026-04-25 01:19 | 12.30937 | 146.16612 | 35962 ft | 461 kts | 308° |
| 2026-04-25 01:19 | 12.32967 | 146.14092 | 35686 ft | 461 kts | 308° |
| 2026-04-25 01:19 | 12.34999 | 146.11566 | 35123 ft | 454 kts | 308° |
| 2026-04-25 01:19 | 12.37018 | 146.09058 | 34558 ft | 446 kts | 308° |
| 2026-04-25 01:20 | 12.38981 | 146.06618 | 34009 ft | 443 kts | 308° |
| 2026-04-25 01:20 | 12.40933 | 146.04192 | 33453 ft | 443 kts | 308° |
| 2026-04-25 01:20 | 12.42897 | 146.01749 | 32890 ft | 444 kts | 308° |
| 2026-04-25 01:20 | 12.44865 | 145.99301 | 32338 ft | 446 kts | 308° |
| 2026-04-25 01:21 | 12.46838 | 145.96846 | 31720 ft | 448 kts | 308° |
| 2026-04-25 01:21 | 12.48834 | 145.94360 | 31128 ft | 450 kts | 308° |
| 2026-04-25 01:21 | 12.50841 | 145.91861 | 30516 ft | 452 kts | 308° |
| 2026-04-25 01:21 | 12.52841 | 145.89371 | 29915 ft | 455 kts | 308° |
| 2026-04-25 01:22 | 12.54876 | 145.86836 | 29298 ft | 457 kts | 309° |
| 2026-04-25 01:22 | 12.56899 | 145.84315 | 28689 ft | 458 kts | 309° |
| 2026-04-25 01:22 | 12.58911 | 145.81807 | 28087 ft | 456 kts | 309° |
| 2026-04-25 01:22 | 12.60918 | 145.79308 | 27481 ft | 452 kts | 309° |
| 2026-04-25 01:23 | 12.62918 | 145.76813 | 26880 ft | 449 kts | 309° |
| 2026-04-25 01:23 | 12.64884 | 145.74361 | 26289 ft | 446 kts | 309° |
| 2026-04-25 01:23 | 12.66842 | 145.71918 | 25699 ft | 443 kts | 309° |
| 2026-04-25 01:23 | 12.68831 | 145.69435 | 25102 ft | 441 kts | 309° |
| 2026-04-25 01:24 | 12.70752 | 145.67038 | 24524 ft | 438 kts | 309° |
| 2026-04-25 01:24 | 12.72686 | 145.64622 | 23939 ft | 436 kts | 309° |
| 2026-04-25 01:24 | 12.74602 | 145.62230 | 23367 ft | 434 kts | 310° |
| 2026-04-25 01:24 | 12.76528 | 145.59825 | 22786 ft | 431 kts | 310° |
| 2026-04-25 01:25 | 12.78415 | 145.57468 | 22214 ft | 429 kts | 310° |
| 2026-04-25 01:25 | 12.80289 | 145.55124 | 21660 ft | 427 kts | 310° |
| 2026-04-25 01:25 | 12.82182 | 145.52757 | 21083 ft | 423 kts | 310° |
| 2026-04-25 01:25 | 12.84034 | 145.50441 | 20525 ft | 419 kts | 310° |
| 2026-04-25 01:26 | 12.85873 | 145.48141 | 19971 ft | 415 kts | 310° |
| 2026-04-25 01:26 | 12.87689 | 145.45869 | 19425 ft | 411 kts | 310° |
| 2026-04-25 01:26 | 12.89486 | 145.43620 | 18883 ft | 407 kts | 310° |
| 2026-04-25 01:26 | 12.91293 | 145.41357 | 18269 ft | 404 kts | 310° |
| 2026-04-25 01:27 | 12.93041 | 145.39169 | 17760 ft | 397 kts | 310° |
| 2026-04-25 01:27 | 12.94815 | 145.36949 | 17224 ft | 395 kts | 310° |
| 2026-04-25 01:27 | 12.96548 | 145.34778 | 16706 ft | 391 kts | 309° |
| 2026-04-25 01:28 | 12.99963 | 145.30498 | 15675 ft | 381 kts | 310° |
| 2026-04-25 01:28 | 13.01637 | 145.28398 | 15172 ft | 374 kts | 310° |
| 2026-04-25 01:28 | 13.03261 | 145.26363 | 14686 ft | 368 kts | 310° |
| 2026-04-25 01:28 | 13.04878 | 145.24335 | 14203 ft | 361 kts | 310° |
| 2026-04-25 01:29 | 13.06457 | 145.22353 | 13730 ft | 354 kts | 310° |
| 2026-04-25 01:29 | 13.07999 | 145.20415 | 13273 ft | 348 kts | 309° |
| 2026-04-25 01:29 | 13.09432 | 145.18414 | 12803 ft | 340 kts | 308° |
| 2026-04-25 01:29 | 13.10866 | 145.16531 | 12329 ft | 335 kts | 309° |
| 2026-04-25 01:30 | 13.12291 | 145.14667 | 11830 ft | 330 kts | 309° |
| 2026-04-25 01:30 | 13.13680 | 145.12833 | 11284 ft | 320 kts | 309° |
| 2026-04-25 01:30 | 13.15031 | 145.11029 | 10833 ft | 316 kts | 309° |
| 2026-04-25 01:30 | 13.16343 | 145.09265 | 10326 ft | 307 kts | 309° |
| 2026-04-25 01:31 | 13.17615 | 145.07532 | 9877 ft | 297 kts | 309° |
| 2026-04-25 01:31 | 13.18833 | 145.05852 | 9431 ft | 288 kts | 309° |
| 2026-04-25 01:31 | 13.20004 | 145.04215 | 8985 ft | 281 kts | 309° |
| 2026-04-25 01:31 | 13.21155 | 145.02608 | 8537 ft | 275 kts | 309° |
| 2026-04-25 01:32 | 13.22327 | 145.01071 | 8090 ft | 268 kts | 313° |
| 2026-04-25 01:32 | 13.23523 | 144.99638 | 7648 ft | 263 kts | 313° |
| 2026-04-25 01:32 | 13.24704 | 144.98222 | 7206 ft | 259 kts | 313° |
| 2026-04-25 01:32 | 13.25876 | 144.96817 | 6754 ft | 257 kts | 313° |
| 2026-04-25 01:33 | 13.27043 | 144.95418 | 6315 ft | 256 kts | 314° |
| 2026-04-25 01:33 | 13.28196 | 144.94035 | 5935 ft | 255 kts | 314° |
| 2026-04-25 01:33 | 13.29257 | 144.92577 | 5549 ft | 258 kts | 298° |
| 2026-04-25 01:33 | 13.29841 | 144.90814 | 5171 ft | 260 kts | 288° |
| 2026-04-25 01:34 | 13.30304 | 144.89029 | 4808 ft | 260 kts | 287° |
| 2026-04-25 01:34 | 13.30764 | 144.87210 | 4436 ft | 260 kts | 287° |
| 2026-04-25 01:34 | 13.31213 | 144.85429 | 4060 ft | 260 kts | 288° |
| 2026-04-25 01:34 | 13.31667 | 144.83620 | 3669 ft | 258 kts | 287° |
| 2026-04-25 01:35 | 13.32112 | 144.81841 | 3308 ft | 257 kts | 287° |
| 2026-04-25 01:35 | 13.32560 | 144.80057 | 2933 ft | 257 kts | 287° |
| 2026-04-25 01:35 | 13.33006 | 144.78275 | 2561 ft | 257 kts | 287° |
| 2026-04-25 01:35 | 13.33464 | 144.76503 | 2185 ft | 256 kts | 287° |
| 2026-04-25 01:36 | 13.34022 | 144.74779 | 1966 ft | 249 kts | 303° |
| 2026-04-25 01:36 | 13.35199 | 144.73541 | 1948 ft | 242 kts | 329° |
| 2026-04-25 01:36 | 13.36634 | 144.72617 | 1953 ft | 243 kts | 332° |
| 2026-04-25 01:36 | 13.38090 | 144.71713 | 1958 ft | 244 kts | 332° |
| 2026-04-25 01:37 | 13.39553 | 144.70807 | 1952 ft | 244 kts | 332° |
| 2026-04-25 01:37 | 13.40965 | 144.69925 | 1958 ft | 224 kts | 332° |
| 2026-04-25 01:37 | 13.42227 | 144.69157 | 1931 ft | 194 kts | 347° |
| 2026-04-25 01:37 | 13.43487 | 144.69215 | 2078 ft | 179 kts | 34° |
| 2026-04-25 01:38 | 13.44181 | 144.70239 | 1950 ft | 179 kts | 66° |
| 2026-04-25 01:38 | 13.44634 | 144.71433 | 1627 ft | 172 kts | 69° |
| 2026-04-25 01:38 | 13.45061 | 144.72516 | 1467 ft | 148 kts | 67° |
| 2026-04-25 01:38 | 13.45440 | 144.73408 | 1289 ft | 126 kts | 65° |
| 2026-04-25 01:39 | 13.45819 | 144.74258 | 1026 ft | 126 kts | 68° |
| 2026-04-25 01:39 | 13.46165 | 144.75070 | 926 ft | 124 kts | 67° |
| 2026-04-25 01:39 | 13.46529 | 144.75894 | 785 ft | 125 kts | 66° |
| 2026-04-25 01:39 | 13.46899 | 144.76701 | 653 ft | 126 kts | 67° |
| 2026-04-25 01:40 | 13.47273 | 144.77519 | 479 ft | 125 kts | 66° |
| 2026-04-25 01:40 | 13.47646 | 144.78337 | 308 ft | 126 kts | 67° |
| 2026-04-25 01:40 | 13.48005 | 144.79111 | 260 ft | 107 kts | 65° |
| 2026-04-25 01:40 | 13.48224 | 144.79587 | 268 ft | 19 kts | 64° |
| 2026-04-25 01:41 | 13.48244 | 144.79657 | 269 ft | 10 kts | 99° |
| 2026-04-25 01:41 | 13.48186 | 144.79698 | 269 ft | 11 kts | 154° |
| 2026-04-25 01:41 | 13.48137 | 144.79721 | 269 ft | 7 kts | 155° |
| 2026-04-25 01:41 | 13.48117 | 144.79778 | 268 ft | 11 kts | 66° |
| 2026-04-25 01:42 | 13.48154 | 144.79860 | 269 ft | 13 kts | 65° |
| 2026-04-25 01:42 | 13.48197 | 144.79956 | 270 ft | 15 kts | 66° |
| 2026-04-25 01:42 | 13.48242 | 144.80063 | 273 ft | 16 kts | 64° |
| 2026-04-25 01:42 | 13.48293 | 144.80168 | 275 ft | 16 kts | 65° |
| 2026-04-25 01:43 | 13.48312 | 144.80240 | 278 ft | 7 kts | 115° |
| 2026-04-25 01:43 | 13.48286 | 144.80287 | 280 ft | 7 kts | 88° |
| 2026-04-25 01:43 | 13.48296 | 144.80341 | 282 ft | 7 kts | 112° |
| 2026-04-25 01:43 | 13.48255 | 144.80368 | 284 ft | 7 kts | 153° |
| 2026-04-25 01:44 | 13.48223 | 144.80383 | 285 ft | 1 kts | 153° |